createdAt,value
2022-07-30T00:01:23.891Z,2.90
2022-07-30T00:03:51.720Z,3.35
2022-07-30T00:06:19.605Z,3.33
2022-07-30T00:08:47.154Z,4.00
2022-07-30T00:11:15.585Z,4.80
2022-07-30T00:13:43.082Z,3.50
2022-07-30T00:16:11.847Z,2.00
2022-07-30T00:21:06.983Z,4.68
2022-07-30T00:23:38.858Z,1.63
2022-07-30T00:26:06.365Z,2.58
2022-07-30T00:31:02.663Z,3.03
2022-07-30T00:33:32.483Z,5.25
2022-07-30T00:36:00.527Z,3.00
2022-07-30T00:38:28.322Z,4.45
2022-07-30T00:40:56.040Z,3.83
2022-07-30T00:43:23.571Z,2.78
2022-07-30T00:45:51.291Z,2.55
2022-07-30T00:48:18.887Z,2.20
2022-07-30T00:50:46.577Z,2.43
2022-07-30T00:53:16.121Z,2.85
2022-07-30T00:55:43.818Z,2.23
2022-07-30T00:58:11.319Z,1.65
2022-07-30T01:00:39.076Z,1.80
2022-07-30T01:03:07.228Z,2.40
2022-07-30T01:05:37.329Z,2.17
2022-07-30T01:08:05.360Z,1.30
2022-07-30T01:10:33.019Z,1.20
2022-07-30T01:13:02.269Z,2.00
2022-07-30T01:15:30.617Z,2.95
2022-07-30T01:18:00.429Z,1.58
2022-07-30T01:20:30.959Z,3.13
2022-07-30T01:23:07.186Z,5.30
2022-07-30T01:25:37.889Z,1.10
2022-07-30T01:28:07.451Z,4.28
2022-07-30T01:30:36.718Z,2.53
2022-07-30T01:33:05.487Z,3.22
2022-07-30T01:35:33.951Z,1.67
2022-07-30T01:40:29.849Z,2.30
2022-07-30T01:42:59.736Z,1.13
2022-07-30T01:45:29.198Z,1.58
2022-07-30T01:47:59.277Z,4.28
2022-07-30T01:50:28.961Z,1.48
2022-07-30T01:52:57.433Z,1.42
2022-07-30T01:55:28.048Z,1.33
2022-07-30T01:57:56.754Z,1.75
2022-07-30T02:00:30.892Z,2.13
2022-07-30T02:02:59.063Z,2.35
2022-07-30T02:05:28.477Z,3.10
2022-07-30T02:10:25.814Z,1.98
2022-07-30T02:12:56.732Z,3.00
2022-07-30T02:15:32.129Z,1.10
2022-07-30T02:18:11.806Z,3.95
2022-07-30T02:20:40.693Z,2.33
2022-07-30T02:23:11.379Z,2.13
2022-07-30T02:25:42.666Z,2.40
2022-07-30T02:28:13.730Z,3.13
2022-07-30T02:30:47.075Z,1.45
2022-07-30T02:33:15.876Z,4.43
2022-07-30T02:38:12.038Z,1.38
2022-07-30T02:43:07.062Z,1.80
2022-07-30T02:45:36.962Z,3.80
2022-07-30T02:48:09.434Z,2.33
2022-07-30T02:50:40.321Z,1.65
2022-07-30T02:53:11.840Z,2.70
2022-07-30T02:55:41.769Z,2.75
2022-07-30T03:00:37.219Z,2.83
2022-07-30T03:03:07.586Z,2.47
2022-07-30T03:05:38.719Z,2.38
2022-07-30T03:08:08.506Z,2.55
2022-07-30T03:10:37.479Z,1.92
2022-07-30T03:13:08.332Z,2.35
2022-07-30T03:15:39.257Z,0.85
2022-07-30T03:18:08.296Z,2.10
2022-07-30T03:20:36.754Z,2.22
2022-07-30T03:23:05.207Z,1.77
2022-07-30T03:25:33.689Z,0.90
2022-07-30T03:30:29.165Z,2.45
2022-07-30T03:32:56.986Z,2.65
2022-07-30T03:35:25.214Z,3.60
2022-07-30T03:37:55.545Z,2.33
2022-07-30T03:40:24.033Z,2.17
2022-07-30T03:45:22.945Z,3.90
2022-07-30T03:47:52.666Z,1.98
2022-07-30T03:52:48.451Z,2.07
2022-07-30T03:55:18.052Z,3.80
2022-07-30T03:57:52.106Z,2.70
2022-07-30T04:00:26.221Z,2.10
2022-07-30T04:02:54.146Z,2.58
2022-07-30T04:05:48.386Z,5.00
2022-07-30T04:08:16.823Z,3.05
2022-07-30T04:10:44.824Z,3.95
2022-07-30T04:13:18.479Z,4.07
2022-07-30T04:16:05.575Z,2.83
2022-07-30T04:18:54.414Z,2.05
2022-07-30T04:21:23.884Z,2.30
2022-07-30T04:24:03.196Z,4.32
2022-07-30T04:26:34.979Z,3.60
2022-07-30T04:29:05.272Z,3.05
2022-07-30T04:31:40.638Z,2.75
2022-07-30T04:34:48.440Z,2.97
2022-07-30T04:37:20.571Z,2.78
2022-07-30T04:39:54.898Z,2.88
2022-07-30T04:42:23.093Z,4.43
2022-07-30T04:45:01.022Z,2.15
2022-07-30T04:47:34.097Z,3.55
2022-07-30T04:50:27.223Z,2.72
2022-07-30T04:52:56.161Z,2.92
2022-07-30T04:55:28.674Z,2.53
2022-07-30T04:57:57.612Z,2.22
2022-07-30T05:02:53.412Z,7.77
2022-07-30T05:05:24.022Z,12.23
2022-07-30T05:07:52.615Z,5.70
2022-07-30T05:10:21.676Z,4.68
2022-07-30T05:12:49.298Z,1.57
2022-07-30T05:15:21.203Z,2.72
2022-07-30T05:17:49.386Z,4.82
2022-07-30T05:20:17.364Z,3.05
2022-07-30T05:23:06.311Z,6.60
2022-07-30T05:25:34.394Z,1.10
2022-07-30T05:28:14.999Z,2.90
2022-07-30T05:30:44.582Z,1.63
2022-07-30T05:33:17.034Z,2.40
2022-07-30T05:35:45.290Z,0.50
2022-07-30T05:40:53.450Z,0.60
2022-07-30T05:43:41.719Z,2.83
2022-07-30T05:46:09.550Z,2.08
2022-07-30T05:48:37.212Z,1.45
2022-07-30T05:51:05.506Z,2.00
2022-07-30T05:53:33.344Z,2.47
2022-07-30T05:56:12.883Z,2.58
2022-07-30T05:59:13.056Z,0.95
2022-07-30T06:01:59.035Z,0.70
2022-07-30T06:04:35.743Z,4.45
2022-07-30T06:07:05.838Z,1.15
2022-07-30T06:09:37.119Z,2.30
2022-07-30T06:12:07.138Z,1.92
2022-07-30T06:14:35.483Z,0.77
2022-07-30T06:17:05.013Z,0.98
2022-07-30T06:19:53.425Z,1.20
2022-07-30T06:22:26.165Z,3.22
2022-07-30T06:24:55.578Z,1.45
2022-07-30T06:27:31.222Z,1.33
2022-07-30T06:29:59.426Z,1.63
2022-07-30T06:32:27.770Z,1.05
2022-07-30T06:35:02.490Z,1.83
2022-07-30T06:38:06.118Z,2.35
2022-07-30T06:40:22.788Z,0.95
2022-07-30T06:43:14.634Z,1.42
2022-07-30T06:46:00.109Z,0.40
2022-07-30T06:48:37.567Z,0.60
2022-07-30T06:51:06.800Z,2.40
2022-07-30T06:56:15.430Z,1.17
2022-07-30T06:58:53.708Z,0.52
2022-07-30T07:01:50.617Z,1.38
2022-07-30T07:06:46.333Z,1.23
2022-07-30T07:09:18.492Z,1.10
2022-07-30T07:11:54.150Z,0.98
2022-07-30T07:14:21.795Z,1.03
2022-07-30T07:16:50.173Z,0.93
2022-07-30T07:20:01.164Z,1.17
2022-07-30T07:22:24.231Z,0.90
2022-07-30T07:24:51.791Z,1.17
2022-07-30T07:27:22.922Z,1.60
2022-07-30T07:30:04.965Z,3.00
2022-07-30T07:32:37.945Z,1.33
2022-07-30T07:35:15.029Z,0.60
2022-07-30T07:37:48.908Z,1.02
2022-07-30T07:40:27.296Z,2.22
2022-07-30T07:42:57.118Z,1.17
2022-07-30T07:45:24.997Z,0.60
2022-07-30T07:47:59.316Z,1.60
2022-07-30T07:50:45.484Z,1.10
2022-07-30T07:53:21.752Z,2.95
2022-07-30T07:55:49.662Z,0.90
2022-07-30T07:58:22.106Z,0.60
2022-07-30T08:00:55.497Z,0.82
2022-07-30T08:03:29.846Z,1.45
2022-07-30T08:06:06.394Z,1.80
2022-07-30T08:08:48.588Z,3.38
2022-07-30T08:11:48.224Z,0.60
2022-07-30T08:14:41.953Z,0.68
2022-07-30T08:17:42.561Z,0.82
2022-07-30T08:20:25.137Z,0.60
2022-07-30T08:22:54.272Z,1.45
2022-07-30T08:25:28.082Z,0.60
2022-07-30T08:27:56.007Z,1.98
2022-07-30T08:30:23.797Z,2.20
2022-07-30T08:32:51.488Z,1.30
2022-07-30T08:35:19.592Z,2.38
2022-07-30T08:37:47.446Z,0.63
2022-07-30T08:40:19.037Z,1.75
2022-07-30T08:43:00.341Z,1.15
2022-07-30T08:48:35.220Z,3.20
2022-07-30T08:51:03.207Z,2.03
2022-07-30T08:53:34.672Z,7.47
2022-07-30T08:56:04.780Z,12.05
2022-07-30T08:58:35.383Z,3.08
2022-07-30T09:01:03.481Z,5.25
2022-07-30T09:06:05.337Z,1.55
2022-07-30T09:08:33.194Z,2.10
2022-07-30T09:11:00.943Z,1.48
2022-07-30T09:13:34.556Z,3.13
2022-07-30T09:16:03.560Z,1.77
2022-07-30T09:18:37.389Z,1.50
2022-07-30T09:21:25.106Z,2.33
2022-07-30T09:24:13.726Z,3.00
2022-07-30T09:27:00.327Z,1.60
2022-07-30T09:29:57.562Z,1.98
2022-07-30T09:32:51.538Z,1.27
2022-07-30T09:35:38.189Z,3.50
2022-07-30T09:38:12.700Z,3.35
2022-07-30T09:41:04.851Z,1.63
2022-07-30T09:43:57.992Z,1.13
2022-07-30T09:46:48.152Z,1.98
2022-07-30T09:49:26.920Z,1.88
2022-07-30T09:51:57.393Z,0.90
2022-07-30T09:54:51.358Z,2.40
2022-07-30T09:57:25.769Z,1.35
2022-07-30T10:00:01.753Z,0.90
2022-07-30T10:02:33.298Z,2.05
2022-07-30T10:05:27.720Z,1.10
2022-07-30T10:07:56.809Z,1.67
2022-07-30T10:10:26.696Z,2.70
2022-07-30T10:13:04.881Z,1.80
2022-07-30T10:15:35.028Z,2.08
2022-07-30T10:18:06.385Z,6.40
2022-07-30T10:21:05.352Z,2.95
2022-07-30T10:23:56.723Z,1.83
2022-07-30T10:26:44.387Z,1.17
2022-07-30T10:29:33.993Z,1.65
2022-07-30T10:32:02.988Z,1.20
2022-07-30T10:34:34.172Z,1.65
2022-07-30T10:37:04.678Z,1.55
2022-07-30T10:39:44.820Z,1.25
2022-07-30T10:42:26.016Z,2.63
2022-07-30T10:44:59.548Z,1.50
2022-07-30T10:47:34.497Z,1.60
2022-07-30T10:50:11.591Z,1.75
2022-07-30T10:52:50.904Z,1.40
2022-07-30T10:55:36.482Z,1.40
2022-07-30T10:58:10.300Z,1.70
2022-07-30T11:00:58.691Z,1.52
2022-07-30T11:03:41.455Z,1.95
2022-07-30T11:06:15.912Z,1.92
2022-07-30T11:08:45.457Z,2.00
2022-07-30T11:11:59.449Z,1.70
2022-07-30T11:14:09.624Z,2.20
2022-07-30T11:16:37.588Z,2.28
2022-07-30T11:22:22.023Z,1.98
2022-07-30T11:24:50.305Z,1.50
2022-07-30T11:27:36.836Z,1.70
2022-07-30T11:30:27.755Z,1.90
2022-07-30T11:32:56.434Z,3.17
2022-07-30T11:35:25.655Z,2.55
2022-07-30T11:37:57.025Z,2.20
2022-07-30T11:40:26.425Z,2.65
2022-07-30T11:43:14.343Z,3.10
2022-07-30T11:45:42.243Z,2.80
2022-07-30T11:48:14.122Z,2.88
2022-07-30T11:50:42.302Z,2.83
2022-07-30T11:53:20.488Z,2.17
2022-07-30T11:55:53.252Z,2.00
2022-07-30T11:58:26.610Z,3.75
2022-07-30T12:00:54.677Z,2.65
2022-07-30T12:03:22.869Z,4.75
2022-07-30T12:05:51.172Z,2.20
2022-07-30T12:08:33.427Z,2.60
2022-07-30T12:11:04.961Z,1.92
2022-07-30T12:13:45.769Z,1.88
2022-07-30T12:16:17.965Z,2.28
2022-07-30T12:18:46.418Z,1.27
2022-07-30T12:21:16.375Z,1.77
2022-07-30T12:24:00.806Z,1.55
2022-07-30T12:26:29.719Z,1.52
2022-07-30T12:28:58.431Z,1.65
2022-07-30T12:31:26.583Z,1.30
2022-07-30T12:33:59.049Z,1.30
2022-07-30T12:36:27.074Z,1.25
2022-07-30T12:38:54.712Z,2.13
2022-07-30T12:41:22.722Z,2.67
2022-07-30T12:43:57.206Z,1.00
2022-07-30T12:46:28.649Z,1.50
2022-07-30T12:49:18.298Z,2.45
2022-07-30T12:51:57.559Z,1.60
2022-07-30T12:57:00.157Z,2.75
2022-07-30T12:59:28.406Z,3.05
2022-07-30T13:01:57.552Z,2.42
2022-07-30T13:04:24.875Z,2.17
2022-07-30T13:07:11.794Z,1.13
2022-07-30T13:09:43.090Z,6.03
2022-07-30T13:12:14.283Z,1.65
2022-07-30T13:14:41.809Z,1.20
2022-07-30T13:17:09.957Z,1.45
2022-07-30T13:22:04.840Z,1.55
2022-07-30T13:24:34.180Z,1.67
2022-07-30T13:27:01.551Z,0.75
2022-07-30T13:29:28.855Z,3.17
2022-07-30T13:31:56.076Z,4.22
2022-07-30T13:34:23.197Z,0.93
2022-07-30T13:36:50.458Z,1.45
2022-07-30T13:39:17.716Z,2.42
2022-07-30T13:41:44.996Z,4.03
2022-07-30T13:44:12.063Z,2.92
2022-07-30T13:46:41.305Z,2.35
2022-07-30T13:49:09.395Z,3.58
2022-07-30T13:51:36.732Z,2.40
2022-07-30T13:54:05.206Z,1.43
2022-07-30T13:59:00.048Z,0.80
2022-07-30T14:01:35.055Z,1.42
2022-07-30T14:04:02.649Z,1.42
2022-07-30T14:06:29.728Z,1.15
2022-07-30T14:08:56.955Z,1.65
2022-07-30T14:11:24.066Z,0.88
2022-07-30T14:13:52.132Z,2.55
2022-07-30T14:16:43.678Z,2.47
2022-07-30T14:19:07.244Z,1.25
2022-07-30T14:21:34.711Z,1.58
2022-07-30T14:24:01.854Z,0.80
2022-07-30T14:43:51.763Z,1.00
2022-07-30T14:46:19.501Z,0.98
2022-07-30T14:48:46.774Z,2.28
2022-07-30T14:51:20.534Z,1.33
2022-07-30T14:53:51.763Z,0.90
2022-07-30T14:56:19.620Z,4.07
2022-07-30T14:58:46.879Z,1.30
2022-07-30T15:01:16.283Z,3.35
2022-07-30T15:03:45.025Z,8.10
2022-07-30T15:06:13.116Z,3.25
2022-07-30T15:08:40.225Z,1.38
2022-07-30T15:11:08.190Z,1.90
2022-07-30T15:13:37.197Z,1.33
2022-07-30T15:16:17.060Z,0.98
2022-07-30T15:18:44.983Z,1.42
2022-07-30T15:21:12.706Z,1.23
2022-07-30T15:23:39.868Z,1.23
2022-07-30T15:26:07.369Z,4.07
2022-07-30T15:28:34.593Z,2.80
2022-07-30T15:31:01.780Z,1.48
2022-07-30T15:33:29.058Z,2.10
2022-07-30T15:35:56.497Z,2.65
2022-07-30T15:38:23.643Z,2.60
2022-07-30T15:40:50.943Z,1.27
2022-07-30T15:43:17.996Z,1.70
2022-07-30T15:45:55.720Z,3.05
2022-07-30T15:48:27.650Z,2.75
2022-07-30T15:51:10.259Z,2.08
2022-07-30T15:53:43.753Z,1.67
2022-07-30T15:56:10.853Z,1.67
2022-07-30T15:58:43.014Z,1.13
2022-07-30T16:01:10.921Z,1.40
2022-07-30T16:03:38.714Z,3.47
2022-07-30T16:06:06.125Z,4.20
2022-07-30T16:08:33.290Z,1.15
2022-07-30T16:11:03.841Z,1.05
2022-07-30T16:13:32.045Z,1.35
2022-07-30T16:15:59.258Z,4.13
2022-07-30T16:18:26.418Z,2.30
2022-07-30T16:20:54.768Z,1.40
2022-07-30T16:23:22.049Z,0.98
2022-07-30T16:25:49.216Z,1.60
2022-07-30T16:28:16.380Z,1.35
2022-07-30T16:30:51.463Z,1.85
2022-07-30T16:33:20.175Z,2.00
2022-07-30T16:35:48.911Z,2.00
2022-07-30T16:38:19.946Z,1.33
2022-07-30T16:40:47.109Z,1.65
2022-07-30T16:43:15.596Z,2.38
2022-07-30T16:45:47.310Z,2.20
2022-07-30T16:48:14.590Z,2.45
2022-07-30T16:50:42.641Z,1.75
2022-07-30T16:53:14.092Z,1.38
2022-07-30T16:55:45.530Z,2.38
2022-07-30T16:58:13.306Z,1.80
2022-07-30T17:00:40.829Z,1.45
2022-07-30T17:03:08.083Z,1.03
2022-07-30T17:05:35.452Z,1.98
2022-07-30T17:08:05.631Z,5.68
2022-07-30T17:10:35.869Z,1.95
2022-07-30T17:13:03.029Z,2.00
2022-07-30T17:15:32.945Z,2.85
2022-07-30T17:18:01.240Z,0.82
2022-07-30T17:20:29.347Z,1.33
2022-07-30T17:22:56.815Z,1.55
2022-07-30T17:25:28.124Z,1.38
2022-07-30T17:27:57.096Z,0.85
2022-07-30T17:30:25.020Z,1.77
2022-07-30T17:32:52.183Z,1.02
2022-07-30T17:35:20.206Z,1.55
2022-07-30T17:37:47.640Z,1.73
2022-07-30T17:40:30.381Z,1.75
2022-07-30T17:43:07.809Z,0.80
2022-07-30T17:45:37.067Z,4.22
2022-07-30T17:48:05.841Z,4.88
2022-07-30T17:50:34.805Z,2.35
2022-07-30T17:53:03.916Z,1.35
2022-07-30T17:55:32.641Z,1.90
2022-07-30T17:57:59.775Z,2.72
2022-07-30T18:00:27.177Z,4.00
2022-07-30T18:02:54.267Z,3.70
2022-07-30T18:05:21.883Z,2.20
2022-07-30T18:07:49.255Z,2.55
2022-07-30T18:10:16.566Z,1.40
2022-07-30T18:12:48.604Z,2.17
2022-07-30T18:15:17.722Z,8.98
2022-07-30T18:17:45.180Z,1.40
2022-07-30T18:20:13.370Z,1.88
2022-07-30T18:22:41.197Z,1.95
2022-07-30T18:25:17.912Z,1.13
2022-07-30T18:27:47.895Z,3.42
2022-07-30T18:32:42.489Z,2.28
2022-07-30T18:35:14.025Z,1.95
2022-07-30T18:37:43.504Z,1.77
2022-07-30T18:42:38.945Z,1.90
2022-07-30T18:45:06.505Z,3.33
2022-07-30T18:47:33.682Z,3.20
2022-07-30T18:50:00.908Z,1.30
2022-07-30T18:52:28.567Z,3.05
2022-07-30T18:54:55.650Z,2.47
2022-07-30T18:57:22.930Z,1.83
2022-07-30T18:59:50.001Z,2.42
2022-07-30T19:02:17.181Z,1.88
2022-07-30T19:04:44.987Z,2.92
2022-07-30T19:07:12.109Z,3.28
2022-07-30T19:09:39.390Z,4.50
2022-07-30T19:12:07.103Z,3.58
2022-07-30T19:14:34.659Z,4.65
2022-07-30T19:17:01.807Z,4.40
2022-07-30T19:19:29.912Z,6.60
2022-07-30T19:21:57.653Z,4.72
2022-07-30T19:24:27.653Z,4.97
2022-07-30T19:26:56.238Z,3.92
2022-07-30T19:29:23.770Z,4.22
2022-07-30T19:31:50.870Z,4.18
2022-07-30T19:34:18.075Z,4.53
2022-07-30T19:36:45.233Z,6.50
2022-07-30T19:39:21.107Z,5.25
2022-07-30T19:41:50.766Z,6.35
2022-07-30T19:44:19.039Z,5.20
2022-07-30T19:46:47.023Z,3.60
2022-07-30T19:49:16.473Z,4.20
2022-07-30T19:52:09.868Z,8.90
2022-07-30T19:54:34.928Z,6.32
2022-07-30T19:57:04.797Z,6.88
2022-07-30T19:59:45.606Z,9.13
2022-07-30T20:02:19.059Z,4.82
2022-07-30T20:04:49.857Z,8.38
2022-07-30T20:07:17.113Z,5.72
2022-07-30T20:09:45.012Z,7.55
2022-07-30T20:12:15.649Z,7.70
2022-07-30T20:14:44.777Z,6.60
2022-07-30T20:17:11.992Z,6.65
2022-07-30T20:19:39.412Z,6.65
2022-07-30T20:22:14.874Z,4.60
2022-07-30T20:24:42.600Z,4.82
2022-07-30T20:27:36.365Z,5.10
2022-07-30T20:29:57.105Z,7.60
2022-07-30T20:32:24.893Z,4.63
2022-07-30T20:34:52.622Z,6.50
2022-07-30T20:37:22.518Z,5.87
2022-07-30T20:39:50.307Z,5.32
2022-07-30T20:42:18.664Z,5.03
2022-07-30T20:44:50.710Z,5.53
2022-07-30T20:47:37.519Z,9.43
2022-07-30T20:50:10.801Z,5.93
2022-07-30T20:52:40.552Z,7.35
2022-07-30T20:55:16.855Z,8.00
2022-07-30T20:57:56.393Z,9.55
2022-07-30T21:00:28.504Z,8.73
2022-07-30T21:02:55.622Z,6.47
2022-07-30T21:05:22.808Z,9.55
2022-07-30T21:07:54.588Z,20.77
2022-07-30T21:10:23.617Z,38.35
2022-07-30T21:12:57.006Z,58.45
2022-07-30T21:15:33.002Z,76.05
2022-07-30T21:18:01.807Z,105.25
2022-07-30T21:20:30.236Z,110.10
2022-07-30T21:23:10.253Z,93.93
2022-07-30T21:26:01.972Z,90.60
2022-07-30T21:28:28.297Z,83.30
2022-07-30T21:30:57.092Z,80.85
2022-07-30T21:33:30.938Z,80.38
2022-07-30T21:35:59.537Z,71.88
2022-07-30T21:38:27.791Z,71.13
2022-07-30T21:40:55.943Z,68.55
2022-07-30T21:43:29.855Z,67.53
2022-07-30T21:46:03.886Z,62.05
2022-07-30T21:48:33.895Z,60.35
2022-07-30T21:51:01.468Z,50.40
2022-07-30T21:53:44.639Z,46.67
2022-07-30T21:56:13.418Z,33.20
2022-07-30T21:58:40.681Z,37.30
2022-07-30T22:01:17.804Z,32.42
2022-07-30T22:04:02.955Z,22.67
2022-07-30T22:06:39.415Z,29.10
2022-07-30T22:09:18.845Z,21.90
2022-07-30T22:12:01.635Z,21.10
2022-07-30T22:14:34.022Z,16.42
2022-07-30T22:19:31.994Z,20.88
2022-07-30T22:22:03.578Z,17.00
2022-07-30T22:24:46.930Z,16.93
2022-07-30T22:27:14.775Z,19.20
2022-07-30T22:29:43.518Z,20.83
2022-07-30T22:32:11.790Z,24.85
2022-07-30T22:34:39.448Z,21.10
2022-07-30T22:37:09.279Z,23.10
2022-07-30T22:39:50.502Z,21.45
2022-07-30T22:42:24.325Z,31.45
2022-07-30T22:44:53.200Z,27.80
2022-07-30T22:47:53.918Z,23.20
2022-07-30T22:50:11.730Z,27.17
2022-07-30T22:52:44.316Z,22.35
2022-07-30T22:55:24.026Z,19.85
2022-07-30T22:57:52.652Z,20.67
2022-07-30T23:02:57.092Z,30.83
2022-07-30T23:07:51.795Z,26.13
2022-07-30T23:10:20.494Z,31.60
2022-07-30T23:12:51.578Z,25.05
2022-07-30T23:15:20.130Z,17.75
2022-07-30T23:17:48.101Z,17.30
2022-07-30T23:20:17.743Z,17.88
2022-07-30T23:22:44.918Z,17.25
2022-07-30T23:25:12.943Z,15.52
2022-07-30T23:27:41.220Z,13.88
2022-07-30T23:30:09.961Z,13.73
2022-07-30T23:32:37.188Z,13.27
2022-07-30T23:35:05.606Z,12.43
2022-07-30T23:37:47.736Z,11.98
2022-07-30T23:40:18.688Z,11.45
2022-07-30T23:42:46.730Z,11.10
2022-07-30T23:45:14.135Z,12.10
2022-07-30T23:47:54.590Z,11.35
2022-07-30T23:50:28.959Z,11.40
2022-07-30T23:52:56.059Z,11.30
2022-07-30T23:55:23.355Z,10.80
2022-07-30T23:57:50.638Z,11.32
